Date,TemperatureHighF,TemperatureAvgF,TemperatureLowF,DewpointHighF,DewpointAvgF,DewpointLowF,HumidityHigh,HumidityAvg,HumidityLow,PressureMaxIn,PressureMinIn,WindSpeedMaxMPH,WindSpeedAvgMPH,GustSpeedMaxMPH,PrecipitationSumIn
2013-1-1,30.1,17.5,11.5,22.6,14.0,8.4,91,86,71,30.23,30.04,16,4,16,0.00
2013-1-2,32.3,28.6,11.0,27.7,24.6,7.9,88,85,82,30.23,30.02,20,6,20,0.00
2013-1-3,30.4,21.6,11.6,23.9,17.0,8.2,95,83,66,30.35,30.22,25,5,25,0.00
2013-1-4,41.3,20.9,6.9,26.7,14.3,3.3,88,77,49,30.23,30.03,13,4,13,0.00
2013-1-5,38.9,21.6,5.1,28.2,16.2,2.1,89,80,63,30.24,29.98,35,6,35,0.00
2013-1-6,42.4,24.8,6.8,28.4,18.1,3.8,89,77,55,30.27,29.93,36,8,36,0.00
2013-1-7,46.1,30.1,18.5,27.8,22.9,15.5,89,76,45,29.96,29.86,31,5,31,0.00
2013-1-8,45.1,24.2,11.4,33.7,19.2,8.8,91,83,55,29.87,29.74,21,4,21,0.00
2013-1-9,53.0,39.9,18.7,34.1,29.7,15.7,89,69,45,30.32,30.16,25,10,25,0.00
2013-1-10,40.4,36.6,34.9,33.9,31.5,25.1,92,82,55,30.17,29.50,27,13,27,0.05
2013-1-11,39.6,31.8,16.9,37.5,29.4,12.7,93,91,82,29.70,29.28,36,10,36,0.00
2013-1-12,17.0,11.6,7.2,13.0,6.3,3.1,92,79,72,30.17,29.70,34,10,34,0.00
2013-1-13,20.2,9.5,1.1,10.6,3.4,-3.1,86,76,57,30.35,30.16,20,5,20,0.00
2013-1-14,28.3,11.3,-3.3,12.2,3.8,-6.9,86,73,45,30.45,30.31,18,4,18,0.00
2013-1-15,34.2,20.9,9.9,14.0,9.2,4.2,87,64,29,30.32,29.94,22,6,22,0.00
2013-1-16,51.4,39.6,20.0,31.8,28.5,13.5,84,66,42,30.10,29.85,30,9,30,0.00
2013-1-17,50.4,38.8,26.6,33.1,28.6,23.3,92,68,44,30.37,30.12,13,5,13,0.01
2013-1-18,60.9,39.4,26.7,27.2,23.6,19.3,85,58,22,30.12,29.78,21,6,21,0.00
2013-1-19,51.4,37.0,16.5,29.7,24.4,10.7,81,62,41,30.27,29.77,27,8,27,0.00
2013-1-20,21.5,14.9,7.8,10.9,7.8,3.1,85,73,61,30.43,30.21,18,4,18,0.00
2013-1-21,15.6,9.6,4.4,9.2,-1.1,-7.4,84,62,46,30.45,30.33,22,6,22,0.00
2013-1-22,25.7,16.1,9.2,13.7,8.7,3.6,84,73,53,30.35,30.15,24,8,24,0.00
2013-1-23,24.7,16.0,6.2,17.6,9.8,0.6,92,77,60,30.49,30.13,23,6,23,0.00
2013-1-24,20.4,10.4,1.2,9.9,1.3,-3.5,92,67,46,30.51,30.11,27,10,29,0.00
2013-1-25,51.5,31.4,12.7,26.6,20.0,8.4,87,66,34,30.20,30.09,15,5,15,0.00
2013-1-26,56.2,35.6,17.9,31.3,23.6,15.2,89,66,33,30.14,29.81,41,13,41,0.00
2013-1-27,42.9,38.9,32.9,40.6,35.6,29.3,92,88,60,29.82,29.56,20,6,20,0.19
2013-1-28,36.7,32.2,25.7,34.9,30.4,23.6,93,93,92,29.72,29.56,18,4,18,0.02
2013-1-29,35.9,31.5,20.4,32.8,28.5,17.4,93,89,79,29.78,29.59,34,9,34,0.01
2013-1-30,23.0,17.0,8.7,17.0,12.6,5.1,89,83,71,29.95,29.77,39,10,39,0.00
2013-1-31,9.3,4.0,-3.7,5.1,-2.3,-9.1,85,75,61,30.43,29.95,29,8,29,0.00
2013-2-1,43.4,24.1,2.6,34.0,16.1,-3.3,87,72,53,30.42,29.98,20,6,20,0.00
2013-2-2,50.2,35.8,23.2,37.2,28.0,20.3,91,75,44,30.12,29.96,34,8,34,0.01
2013-2-3,55.4,36.3,17.4,30.4,23.9,14.7,90,65,30,30.16,29.70,27,7,27,0.00
2013-2-4,40.2,29.1,23.4,28.8,24.6,20.9,91,84,63,29.92,29.72,23,7,23,0.00
2013-2-5,49.3,39.0,28.4,31.0,26.5,19.5,86,63,38,29.95,29.75,24,6,24,0.00
2013-2-6,51.9,41.4,33.4,36.1,30.7,25.3,79,66,52,29.91,29.68,29,9,29,0.00
2013-2-7,37.9,30.2,25.0,30.7,26.5,22.5,91,86,75,30.19,29.86,19,6,19,0.00
2013-2-8,35.9,28.7,23.5,30.3,25.4,21.3,92,88,74,30.20,29.92,32,13,32,0.00
2013-2-9,53.2,39.4,29.6,40.1,32.5,26.8,90,78,45,29.92,29.44,33,17,33,0.02
2013-2-10,38.9,32.5,27.6,36.1,29.9,24.1,92,90,85,29.79,29.15,40,13,40,0.10
2013-2-11,29.6,24.3,15.7,24.8,19.2,12.8,89,81,71,30.09,29.80,24,8,35,0.00
2013-2-12,40.4,27.8,13.6,25.3,19.4,10.7,89,72,45,30.07,29.87,19,6,19,0.00
2013-2-13,52.2,36.0,18.6,32.1,26.1,15.4,89,70,40,29.87,29.66,26,6,26,0.00
2013-2-14,41.1,30.4,15.8,31.8,23.2,12.2,87,75,52,30.27,29.77,40,12,40,0.00
2013-2-15,30.2,19.6,4.1,22.9,15.0,0.3,92,82,64,30.36,30.26,32,5,32,0.00
2013-2-16,44.7,26.6,6.0,33.5,21.6,2.9,89,82,61,30.31,29.91,18,5,18,0.00
2013-2-17,63.5,40.0,22.1,34.3,25.0,18.6,88,62,20,29.92,29.45,31,8,31,0.00
2013-2-18,40.7,30.7,17.9,32.4,21.8,12.9,82,70,54,30.07,29.53,41,14,41,0.00
2013-2-19,23.0,13.1,5.3,12.7,3.3,-2.2,92,66,37,30.37,30.07,26,7,26,0.00
2013-2-20,25.2,14.5,4.5,16.8,4.7,-0.6,92,67,41,30.37,30.16,27,9,27,0.00
2013-2-21,19.9,18.1,15.9,15.8,13.6,10.4,90,83,73,30.18,29.93,23,10,23,0.00
2013-2-22,19.7,12.6,1.8,16.5,9.8,-1.2,89,88,87,30.02,29.93,18,5,18,0.01
2013-2-23,35.8,18.4,0.0,27.7,14.1,-3.2,99,84,70,29.98,29.75,14,4,14,0.02
2013-2-24,30.6,23.9,10.1,25.7,20.5,7.7,98,87,80,30.07,29.81,16,3,16,0.00
2013-2-25,37.1,30.3,22.1,29.0,25.7,18.3,91,83,68,30.08,29.92,15,4,15,0.00
2013-2-26,26.2,22.9,18.6,24.1,20.7,16.2,92,91,90,29.97,29.83,19,5,19,0.00
2013-2-27,35.9,28.7,22.0,28.9,24.2,19.3,92,83,74,30.13,29.96,27,10,27,0.00
2013-2-28,29.3,27.1,25.3,25.4,23.5,22.2,89,86,83,30.21,30.11,23,8,23,0.00
2013-3-1,27.7,23.5,21.2,20.8,18.7,17.6,87,82,73,30.32,30.26,19,9,19,0.00
2013-3-2,42.1,27.0,8.7,32.6,22.5,5.8,90,84,67,30.33,29.96,25,6,25,0.00
2013-3-3,43.6,34.7,26.6,37.0,31.0,24.3,91,86,76,29.95,29.56,27,7,27,0.00
2013-3-4,45.9,35.9,28.9,34.8,30.1,23.0,91,81,43,29.73,29.50,34,12,34,0.00
2013-3-5,32.7,25.3,15.2,19.2,16.0,10.9,86,68,53,30.38,30.14,37,11,37,0.00
2013-3-6,38.1,23.5,8.5,22.5,16.0,5.4,90,75,47,30.39,30.11,24,8,24,0.00
2013-3-7,49.4,34.6,23.8,29.9,24.7,20.4,87,69,44,30.11,29.96,32,14,32,0.00
2013-3-8,45.9,31.9,23.7,40.8,27.7,20.3,92,85,71,30.07,29.72,25,5,25,0.00
2013-3-9,47.1,39.7,29.4,44.5,37.3,27.1,92,91,85,29.72,29.50,34,11,34,0.08
2013-3-10,30.2,21.2,16.7,27.9,17.8,13.4,94,87,82,30.05,29.77,42,18,42,0.00
2013-3-11,48.2,26.8,11.9,31.4,18.7,9.0,89,73,43,30.02,29.80,27,6,27,0.00
2013-3-12,34.1,27.9,13.7,24.3,19.5,9.7,87,71,56,30.30,30.00,31,9,31,0.00
2013-3-13,52.6,30.0,8.4,30.0,18.6,5.3,89,68,31,30.36,30.09,31,9,31,0.00
2013-3-14,35.8,34.8,32.7,28.5,28.0,27.4,81,76,72,30.10,30.01,13,7,13,0.00
2013-3-15,57.7,49.0,32.1,41.2,37.3,28.9,89,65,52,29.81,29.61,18,7,18,0.00
2013-3-16,32.2,27.4,20.7,29.3,20.0,16.1,89,74,55,30.11,29.80,29,10,29,0.00
2013-3-17,41.5,32.1,24.3,34.6,25.7,20.5,90,78,54,30.09,29.56,34,14,34,0.09
2013-3-18,36.6,29.6,22.2,33.6,17.2,10.5,90,61,36,30.00,29.63,34,11,34,0.00
2013-3-19,48.5,30.1,13.0,26.6,16.8,9.2,88,62,28,30.34,29.99,30,7,30,0.00
2013-3-20,39.2,23.1,9.6,13.9,11.0,5.5,87,63,32,30.37,30.03,16,5,16,0.00
2013-3-21,28.7,24.5,21.1,26.0,18.4,11.6,92,78,60,30.03,29.82,24,11,24,0.00
2013-3-22,28.7,26.1,23.1,26.2,23.4,17.0,91,89,68,29.96,29.89,18,7,18,0.00
2013-3-23,30.4,27.1,22.2,28.0,24.7,18.1,92,90,83,30.14,29.97,26,7,26,0.02
2013-3-24,26.4,20.6,13.7,19.5,15.7,10.5,92,81,72,30.15,30.08,26,9,26,0.00
2013-3-25,26.1,22.5,14.1,21.0,17.9,10.4,88,82,76,30.34,30.26,23,8,23,0.00
2013-3-26,45.2,30.1,4.9,25.6,18.7,1.9,90,65,37,30.34,30.13,22,8,22,0.01
2013-3-27,54.6,38.3,24.9,30.6,25.6,20.3,86,63,36,30.17,30.04,20,8,20,0.00
2013-3-28,58.7,42.6,24.2,36.0,29.5,21.1,92,64,33,30.11,30.03,24,8,24,0.00
2013-3-29,69.3,49.5,25.8,47.9,36.8,22.5,90,65,36,30.08,29.86,28,8,28,0.20
2013-3-30,62.7,50.5,37.7,47.4,42.1,35.3,91,75,40,29.89,29.81,25,5,25,0.11
2013-3-31,54.7,42.2,26.7,39.6,31.3,21.6,88,68,36,30.11,29.83,24,8,24,0.00
2013-4-1,42.6,29.9,17.9,23.6,20.0,14.7,89,69,43,30.27,30.11,18,4,18,0.00
2013-4-2,59.6,39.7,20.6,31.6,25.1,17.3,88,60,33,30.23,30.05,19,6,19,0.00
2013-4-3,59.2,45.0,29.5,32.1,27.7,23.6,79,53,31,30.15,29.99,33,14,33,0.00
2013-4-4,58.6,44.6,32.5,33.4,26.4,18.0,86,54,24,30.05,29.99,24,8,24,0.00
2013-4-5,69.2,50.2,31.0,41.3,32.6,25.8,84,55,26,30.02,29.46,44,18,44,0.00
2013-4-6,71.8,57.2,44.8,45.2,39.3,32.3,73,54,26,29.65,29.41,32,10,32,0.00
2013-4-7,64.8,49.8,37.7,52.2,42.3,32.8,92,77,38,29.67,29.49,24,5,24,0.11
2013-4-8,69.3,52.1,38.0,51.4,45.0,35.6,91,79,47,29.66,29.46,32,8,32,0.02
2013-4-9,40.2,26.3,20.2,37.6,24.0,17.7,92,91,90,30.07,29.59,34,13,34,1.47
2013-4-10,28.3,26.0,23.3,26.0,23.8,21.1,92,91,91,30.08,29.84,21,8,21,0.00
2013-4-11,30.7,28.3,26.2,28.1,25.9,23.9,92,91,89,29.84,29.64,18,6,18,0.06
2013-4-12,38.6,30.7,26.2,33.0,27.1,23.5,91,87,79,29.96,29.75,25,7,25,0.07
2013-4-13,51.4,39.2,25.1,43.2,34.6,22.8,92,84,73,29.96,29.46,33,10,33,0.00
2013-4-14,53.3,44.3,34.3,45.3,38.3,28.8,91,80,56,29.58,29.18,35,12,35,0.08
2013-4-15,46.2,35.9,27.3,29.5,26.0,20.6,85,68,48,30.04,29.58,24,9,24,0.00
2013-4-16,45.5,37.7,31.4,30.8,28.1,25.9,85,69,48,30.17,30.01,24,8,24,0.00
2013-4-17,36.9,33.1,29.8,33.6,29.8,27.3,91,88,74,30.12,29.84,33,12,33,0.05
2013-4-18,30.7,28.2,26.0,28.3,26.0,24.0,92,91,90,29.93,29.82,33,14,33,0.01
2013-4-19,42.9,32.0,23.2,28.0,22.7,19.3,86,70,48,30.05,29.89,28,8,28,0.00
2013-4-20,44.2,33.6,21.6,30.6,26.0,18.5,89,75,53,30.13,30.02,28,9,28,0.00
2013-4-21,62.4,44.8,32.4,47.8,36.9,26.4,86,75,50,30.06,29.91,25,8,28,0.03
2013-4-22,39.7,33.5,28.9,35.9,30.9,26.8,92,90,85,30.21,29.94,29,12,29,0.11
2013-4-23,35.3,27.4,19.0,26.2,21.6,15.9,92,79,61,30.28,30.15,24,8,24,0.10
2013-4-24,53.4,38.6,18.8,36.0,27.6,15.5,89,67,43,30.17,30.00,32,7,32,0.00
2013-4-25,71.8,49.1,24.7,40.1,31.2,21.3,89,57,24,30.13,29.76,38,13,38,0.00
2013-4-26,72.6,57.6,37.4,39.0,34.7,31.3,82,46,23,30.02,29.81,27,8,27,0.00
2013-4-27,78.4,58.3,32.9,47.1,38.0,29.7,89,53,21,30.02,29.71,17,4,17,0.00
2013-4-28,84.9,65.5,49.4,53.0,44.3,35.0,84,51,19,29.73,29.48,30,10,30,0.00
2013-4-29,78.5,63.3,48.5,49.4,43.9,38.8,76,51,31,29.66,29.26,25,9,25,0.00
2013-4-30,67.8,58.1,47.4,55.3,38.5,22.6,76,51,21,29.89,29.23,30,10,30,0.00
2013-5-1,47.0,36.6,33.0,40.9,31.9,27.8,92,83,67,30.47,29.83,31,10,31,0.93
2013-5-2,53.2,42.0,34.4,32.7,28.7,23.1,83,62,34,30.59,30.35,26,8,26,0.04
2013-5-3,52.4,39.8,25.0,29.1,23.4,16.5,89,57,28,30.35,30.04,28,7,28,0.00
2013-5-4,46.7,41.0,36.6,36.6,30.8,24.0,85,67,55,30.12,30.00,30,11,30,0.00
2013-5-5,58.1,46.1,37.4,45.7,40.3,34.1,91,81,59,30.13,30.01,19,6,19,0.16
2013-5-6,70.8,51.6,32.4,51.4,38.4,30.0,92,66,33,30.06,29.89,15,3,15,0.00
2013-5-7,65.0,56.8,47.1,54.5,46.7,38.9,87,69,55,29.91,29.81,23,9,23,0.05
2013-5-9,50.2,47.8,46.2,46.5,44.6,43.3,90,89,87,29.95,29.93,3,0,3,0.03
2013-5-10,72.0,55.2,39.0,54.6,45.1,35.8,96,73,30,30.02,29.87,19,2,19,0.01
2013-5-11,59.2,51.8,36.5,46.9,30.1,19.4,77,46,23,30.19,29.97,33,9,33,0.00
2013-5-12,66.5,49.4,29.2,39.8,31.8,24.6,92,55,29,30.16,29.94,21,6,21,0.00
2013-5-13,92.6,67.3,48.7,56.9,48.6,38.1,82,56,22,29.94,29.64,26,8,26,0.00
2013-5-14,97.8,76.7,55.0,53.7,48.9,41.8,79,44,18,29.65,29.47,26,7,26,0.00
2013-5-15,79.5,66.4,54.6,49.2,44.8,40.3,70,48,30,29.76,29.59,28,8,28,0.00
2013-5-16,77.0,64.7,57.5,62.3,55.6,45.2,91,74,43,29.70,29.57,32,9,32,1.37
2013-5-17,84.2,71.3,58.4,65.7,59.9,55.2,90,70,45,29.67,29.54,21,8,21,0.00
2013-5-18,77.8,69.3,61.6,69.1,63.3,56.3,89,81,57,29.67,29.43,32,10,32,0.40
2013-5-19,67.4,61.4,57.1,62.1,57.2,53.7,90,86,74,29.51,29.27,31,5,31,0.06
2013-5-20,66.1,58.9,52.7,55.8,52.7,49.5,92,81,58,29.48,29.37,24,7,24,0.05
2013-5-21,57.7,52.0,47.3,50.0,47.4,44.5,94,84,73,29.67,29.47,31,11,31,0.01
2013-5-22,56.9,50.6,47.0,51.9,47.2,44.6,92,88,79,29.93,29.63,24,8,24,0.05
2013-5-23,68.0,56.9,45.8,50.0,45.9,41.9,91,69,43,30.12,29.93,31,10,31,0.00
2013-5-24,55.2,52.1,49.4,46.7,43.5,42.3,82,72,63,30.06,30.03,24,10,24,0.00
2013-5-25,77.0,71.4,61.2,68.0,63.9,56.6,89,78,66,29.79,29.67,31,14,31,0.03
2013-5-26,68.5,62.7,54.6,64.5,59.8,52.0,92,90,86,29.75,29.56,35,12,35,0.74
2013-5-27,74.0,65.9,58.0,66.9,60.4,54.8,91,83,74,29.73,29.46,25,8,25,0.13
2013-5-28,76.0,65.6,53.1,64.4,58.8,50.5,91,80,63,29.59,29.44,39,6,39,0.67
2013-5-29,73.1,66.2,58.9,67.8,62.1,55.6,92,87,70,29.49,29.21,36,12,36,0.90
2013-5-30,75.0,63.8,55.3,61.6,55.6,49.3,92,76,47,29.40,29.25,26,9,26,0.08
2013-5-31,70.3,61.5,54.2,51.6,48.6,46.1,80,63,48,29.51,29.40,35,12,35,0.00
2013-6-1,57.1,53.6,48.5,51.1,48.2,44.8,92,82,71,29.97,29.49,39,11,39,0.00
2013-6-2,48.9,47.0,44.1,45.5,43.8,41.1,90,89,88,29.98,29.97,7,2,7,0.00
2013-6-3,76.0,71.5,65.6,55.6,53.4,50.4,68,53,45,29.66,29.57,42,18,42,0.00
2013-6-4,73.6,64.5,58.3,58.2,54.4,50.4,89,71,49,29.89,29.58,28,7,32,0.05
2013-6-5,64.0,57.4,50.8,52.0,48.7,45.2,85,73,61,29.94,29.88,21,6,21,0.02
2013-6-6,68.2,58.5,48.3,54.0,49.7,44.6,91,74,53,29.91,29.85,18,4,18,0.00
2013-6-7,76.3,60.9,41.3,56.2,48.6,38.9,92,67,38,29.91,29.65,22,3,22,0.00
2013-6-8,66.5,62.0,57.7,62.0,56.7,48.5,91,83,58,29.65,29.46,28,11,38,0.34
2013-6-9,72.7,63.3,54.4,58.7,55.6,50.8,88,77,59,29.72,29.55,26,10,34,0.00
2013-6-10,84.0,67.0,47.8,63.4,56.7,45.3,92,72,44,29.72,29.56,27,7,27,0.00
2013-6-11,87.5,76.6,65.3,72.7,66.5,60.7,87,72,54,29.65,29.39,39,10,39,0.00
2013-6-12,76.7,69.2,54.9,69.7,59.6,50.9,87,72,58,29.93,29.41,32,10,32,0.00
2013-6-13,73.5,63.3,50.4,59.1,54.0,47.6,91,73,53,29.98,29.81,19,5,19,0.09
2013-6-14,91.0,73.5,62.4,74.7,63.0,54.0,87,71,49,29.87,29.51,38,9,38,0.01
2013-6-15,78.7,71.1,61.2,67.3,63.7,57.8,90,78,61,29.80,29.60,36,5,36,0.14
2013-6-16,79.4,66.9,53.6,64.6,56.2,50.9,92,71,41,29.88,29.76,33,3,33,0.00
2013-6-17,80.7,67.8,51.6,62.9,56.1,48.6,91,69,41,29.91,29.81,15,3,15,0.00
2013-6-18,82.5,69.0,55.9,61.9,57.6,53.0,91,70,45,29.91,29.77,19,5,19,0.04
2013-6-19,88.5,75.3,62.7,68.2,61.6,58.0,87,65,39,29.80,29.60,35,13,35,0.00
2013-6-20,90.8,77.8,68.5,70.7,66.9,61.0,85,70,50,29.66,29.52,31,13,31,0.00
2013-6-21,94.5,84.1,68.5,70.4,67.6,60.6,82,60,37,29.66,29.47,47,13,47,0.03
2013-6-22,82.8,74.6,64.9,71.0,66.2,60.0,88,76,62,29.69,29.42,39,12,39,0.14
2013-6-23,83.0,71.1,61.1,68.6,61.8,57.6,89,74,49,29.72,29.46,37,5,37,0.38
2013-6-24,83.5,73.6,65.3,72.7,67.2,60.9,90,81,68,29.69,29.48,30,7,30,0.03
2013-6-25,85.3,78.0,70.9,71.9,67.3,57.1,87,70,53,29.52,29.44,37,11,37,0.00
2013-6-26,92.7,78.5,66.1,70.6,63.3,54.3,89,64,31,29.69,29.50,11,3,11,0.00
2013-6-27,87.0,76.1,68.5,69.0,65.2,59.6,89,71,42,29.81,29.66,22,4,22,0.11
2013-6-28,83.0,73.8,63.8,64.2,58.6,53.8,87,62,38,29.88,29.78,32,6,32,0.00
2013-6-29,79.5,69.5,59.6,59.7,56.4,53.6,84,65,44,29.85,29.79,30,7,30,0.00
2013-6-30,76.4,65.8,54.4,59.4,54.9,49.8,90,70,45,30.00,29.85,19,4,19,0.00
2013-7-1,78.9,64.8,46.8,59.0,51.7,44.3,91,66,34,30.09,30.00,15,3,17,0.00
2013-7-2,80.2,62.8,49.9,60.5,54.2,47.1,91,76,43,30.03,29.90,12,1,12,0.00
2013-7-3,79.8,63.9,51.9,62.5,55.3,49.3,91,76,45,29.92,29.73,18,3,18,0.00
2013-7-4,84.0,77.7,63.7,63.8,59.3,55.1,74,54,42,29.73,29.61,29,13,29,0.00
2013-7-5,84.4,75.4,67.3,70.3,62.5,56.6,73,65,57,29.65,29.55,22,12,27,0.00
2013-7-6,87.5,78.3,69.6,71.2,64.1,57.6,75,62,47,29.58,29.50,26,12,26,0.00
2013-7-7,88.2,77.1,64.4,76.7,68.3,60.9,90,75,57,29.71,29.58,32,4,32,0.01
2013-7-8,86.7,81.2,69.8,75.9,72.3,66.7,90,75,60,29.77,29.68,21,6,21,0.12
2013-7-9,88.0,78.5,69.7,75.4,69.7,63.8,90,76,57,29.82,29.63,17,4,17,0.00
2013-7-10,82.5,71.1,57.3,69.2,63.8,54.7,91,79,57,29.92,29.80,19,4,19,0.00
2013-7-11,84.3,76.2,64.8,70.4,65.8,61.2,89,71,60,29.87,29.68,30,13,30,0.00
2013-7-12,89.5,79.1,67.4,75.3,68.3,60.8,80,70,58,29.73,29.59,32,15,32,0.00
2013-7-13,89.2,81.8,72.3,78.5,73.1,67.5,86,75,66,29.68,29.60,24,10,24,0.00
2013-7-14,78.9,73.5,69.7,72.2,68.7,65.8,89,85,77,29.94,29.66,33,8,33,0.01
2013-7-15,81.8,71.4,62.3,66.4,62.8,59.0,90,76,52,30.01,29.91,23,7,23,0.00
2013-7-16,83.0,73.6,63.3,68.6,64.5,59.7,89,74,56,30.04,29.95,29,9,29,0.00
2013-7-17,85.4,76.3,64.9,70.5,65.8,61.4,89,71,53,30.08,29.92,21,9,28,0.00
2013-7-18,89.8,80.0,67.8,69.9,67.0,63.8,88,66,47,29.92,29.65,32,12,32,0.00
2013-7-19,88.3,79.5,64.2,71.5,64.0,55.2,83,61,33,29.76,29.67,15,5,15,0.00
2013-7-20,82.8,69.7,57.8,66.5,60.8,53.9,89,75,44,29.85,29.68,28,6,28,0.07
2013-7-21,86.8,74.7,63.7,68.2,64.7,60.1,91,73,45,29.75,29.56,18,5,18,0.00
2013-7-22,88.8,77.9,67.4,72.2,65.5,57.3,89,68,38,29.67,29.55,21,5,21,0.00
2013-7-23,78.9,69.6,61.7,65.3,62.2,58.3,90,78,56,29.85,29.63,35,6,35,0.08
2013-7-24,84.9,68.3,51.0,69.3,60.4,48.5,92,78,47,29.93,29.80,28,2,28,0.59
2013-7-25,85.2,72.5,62.8,67.6,64.4,59.5,91,78,50,29.85,29.74,17,3,17,0.00
2013-7-26,71.8,63.3,54.5,59.7,54.1,50.7,91,74,49,30.02,29.84,21,5,21,0.00
2013-7-27,54.5,51.5,50.1,51.3,48.6,47.3,91,90,88,30.02,29.99,5,0,5,0.00
2013-7-28,74.7,70.6,65.2,57.9,55.9,52.5,77,60,50,29.89,29.83,21,7,21,0.00
2013-7-29,65.4,62.5,58.7,62.0,58.8,54.8,92,88,69,29.89,29.82,18,6,18,0.14
2013-7-30,76.0,67.8,62.6,67.5,63.5,60.1,92,87,72,29.96,29.87,16,2,16,0.03
2013-7-31,81.6,70.2,59.9,67.1,62.8,57.6,92,79,53,29.98,29.86,14,2,14,0.00
2013-8-1,72.8,64.5,58.0,66.8,61.5,55.3,92,90,79,29.93,29.68,23,4,23,1.60
2013-8-2,76.8,68.1,60.9,68.8,64.0,58.6,92,87,71,29.87,29.66,29,5,29,0.21
2013-8-3,72.2,65.1,60.0,63.5,60.0,56.4,91,84,66,30.06,29.86,32,5,32,0.01
2013-8-4,74.8,66.4,57.9,68.9,61.6,54.8,90,85,77,30.03,29.81,26,8,26,0.00
2013-8-5,82.7,73.8,66.4,74.0,68.7,63.3,91,85,62,29.82,29.66,20,5,20,0.08
2013-8-6,86.0,74.2,63.7,73.8,67.2,61.0,91,80,57,29.77,29.61,30,5,30,0.46
2013-8-7,80.3,70.3,58.4,67.3,62.9,55.4,91,78,55,29.81,29.70,9,3,11,0.00
2013-8-8,75.5,68.7,62.1,66.4,63.6,59.1,90,84,64,29.86,29.76,16,4,16,0.02
2013-8-9,78.6,67.5,56.6,66.2,60.6,54.0,92,80,56,29.98,29.85,14,3,14,0.00
2013-8-10,81.8,71.1,61.4,69.5,63.5,58.4,92,78,58,30.00,29.83,25,8,25,0.01
2013-8-11,81.1,71.9,65.3,70.4,65.6,61.0,90,81,67,29.87,29.81,19,5,19,0.00
2013-8-12,79.0,69.7,61.4,67.4,62.8,57.3,92,80,52,29.92,29.84,14,3,14,0.00
2013-8-13,73.9,65.7,57.7,63.1,59.8,54.3,91,82,60,30.01,29.91,13,3,15,0.00
2013-8-14,65.3,62.0,57.6,62.2,59.1,54.3,91,90,88,30.00,29.88,18,6,18,1.01
2013-8-15,67.0,63.0,60.4,63.6,60.3,57.8,92,91,88,29.95,29.84,15,5,15,0.02
2013-8-16,70.5,64.0,60.2,64.9,60.5,57.6,92,88,80,29.99,29.93,16,4,16,0.00
2013-8-17,75.8,67.2,59.4,68.4,62.4,56.8,92,85,73,29.98,29.88,26,10,26,0.00
2013-8-18,75.5,67.9,59.6,68.0,62.3,56.1,89,83,75,29.92,29.82,27,11,27,0.00
2013-8-19,75.6,67.0,62.9,70.8,63.4,59.9,90,88,85,29.83,29.67,17,7,17,0.00
2013-8-20,86.5,79.5,69.8,76.3,72.2,66.2,89,79,67,29.70,29.63,22,9,22,0.00
2013-8-21,87.4,76.9,66.1,77.6,70.3,63.0,90,81,67,29.88,29.66,34,6,34,1.03
2013-8-22,80.2,72.8,66.1,72.1,67.8,63.1,90,85,73,29.88,29.75,26,6,26,0.75
2013-8-23,83.2,75.6,68.5,74.6,69.9,65.4,90,83,70,29.88,29.69,29,10,29,0.00
2013-8-24,87.0,79.2,72.9,76.8,72.3,69.2,89,80,67,29.74,29.68,30,15,30,0.00
2013-8-25,88.5,80.7,73.3,76.8,72.2,68.9,87,76,62,29.78,29.72,27,14,27,0.00
2013-8-26,92.1,81.7,71.7,75.8,70.7,66.0,84,70,54,29.78,29.63,26,12,26,0.00
2013-8-27,95.0,80.9,70.6,74.5,68.6,63.8,81,67,46,29.69,29.63,18,7,18,0.00
2013-8-28,94.8,79.8,67.3,70.8,65.4,61.1,86,64,36,29.76,29.67,18,6,18,0.00
2013-8-29,93.9,80.2,67.7,75.0,70.1,64.0,89,74,49,29.77,29.65,19,6,19,0.00
2013-8-30,88.6,77.6,67.6,75.5,70.3,64.2,90,79,56,29.74,29.67,17,3,17,0.00
2013-8-31,91.5,77.6,62.3,72.4,66.8,59.0,90,71,43,29.73,29.56,16,3,16,0.00
2013-9-1,79.1,72.6,57.7,60.3,57.6,54.1,88,61,47,29.88,29.78,25,4,25,0.00
2013-9-2,80.7,65.5,49.5,66.0,57.7,47.0,91,78,51,29.95,29.84,10,2,10,0.00
2013-9-3,85.0,72.1,59.0,68.6,61.4,55.4,89,71,48,29.87,29.77,23,9,23,0.00
2013-9-4,85.8,74.3,66.1,70.0,63.1,57.9,87,69,42,29.89,29.80,27,9,27,0.02
2013-9-5,84.0,71.6,66.0,69.8,64.0,60.3,83,77,54,29.95,29.84,32,12,32,0.02
2013-9-6,91.3,78.6,67.1,70.7,66.1,62.3,85,67,44,29.85,29.62,28,10,28,0.00
2013-9-7,86.0,76.1,65.5,75.8,68.5,57.9,89,78,61,29.75,29.61,16,5,16,0.00
2013-9-8,87.1,77.5,68.8,77.6,71.4,65.4,90,82,67,29.73,29.52,24,7,24,0.00
2013-9-9,94.3,80.5,67.7,70.9,64.6,60.1,77,60,38,29.66,29.50,21,6,21,0.00
2013-9-10,81.4,71.5,60.4,66.1,63.2,57.1,89,76,52,29.87,29.65,16,2,16,0.00
2013-9-11,81.5,70.8,57.5,66.8,61.3,54.6,90,74,50,29.98,29.88,10,2,10,0.00
2013-9-12,76.6,63.8,51.9,57.1,53.0,48.6,91,71,41,30.11,29.98,19,3,19,0.00
2013-9-13,73.6,58.6,41.3,57.9,49.6,38.9,91,74,45,30.08,29.89,19,5,19,0.00
2013-9-14,72.5,64.6,58.3,61.1,55.5,50.3,86,73,62,29.89,29.65,34,11,34,0.00
2013-9-15,69.2,62.8,55.5,61.8,56.6,51.7,90,81,65,30.13,29.67,24,8,24,0.00
2013-9-16,64.8,59.1,56.4,56.0,53.0,51.2,86,80,70,30.17,29.99,21,7,21,0.00
2013-9-17,69.2,64.5,57.3,65.8,61.2,54.4,90,89,87,29.88,29.61,30,12,30,0.00
2013-9-18,86.0,75.0,66.6,72.0,67.5,63.6,90,79,59,29.61,29.41,26,11,26,0.00
2013-9-19,76.5,64.0,50.4,67.1,56.0,46.6,88,76,50,29.91,29.40,43,8,43,0.20
2013-9-20,69.5,55.0,44.1,48.2,44.5,40.7,92,71,40,29.98,29.85,23,5,23,0.00
2013-9-21,80.3,54.6,39.9,58.2,46.0,37.5,91,76,37,29.90,29.63,23,5,23,0.00
2013-9-22,79.3,65.6,55.9,58.5,51.9,48.6,79,62,44,29.64,29.48,38,13,38,0.00
2013-9-23,73.2,61.6,56.8,58.6,52.2,48.9,89,72,51,29.59,29.47,40,14,40,0.41
2013-9-24,72.7,60.8,52.2,60.4,55.3,49.2,92,83,58,29.80,29.58,18,4,18,0.10
2013-9-25,75.3,62.6,48.8,61.3,55.3,46.0,91,78,56,29.76,29.47,32,11,32,0.00
2013-9-26,82.5,71.3,61.3,64.0,59.7,56.3,84,68,49,29.51,29.41,37,15,37,0.00
2013-9-27,78.0,67.5,52.3,62.3,58.1,49.1,90,73,55,29.62,29.44,32,11,32,0.60
2013-9-28,57.8,49.6,46.0,48.7,45.3,41.5,91,85,64,29.89,29.54,22,8,22,0.73
2013-9-29,76.5,60.3,45.6,51.3,45.1,40.3,83,60,33,29.89,29.63,33,10,33,0.00
2013-9-30,81.5,67.1,52.3,55.7,50.2,46.1,82,57,33,29.64,29.43,25,10,25,0.00
2013-10-1,65.7,58.1,48.2,53.8,47.7,41.9,83,69,44,29.82,29.51,14,4,14,0.00
2013-10-2,64.1,63.1,62.0,60.8,59.7,58.6,89,89,87,29.70,29.65,22,5,22,2.66
2013-10-3,59.4,55.7,51.1,56.7,52.9,48.6,92,90,90,29.69,29.62,19,6,19,0.01
2013-10-4,73.8,57.4,39.0,68.1,53.1,32.9,91,86,64,29.68,29.39,33,8,33,0.01
2013-10-5,43.4,39.9,37.7,36.0,33.5,31.3,82,78,74,29.70,29.65,31,11,31,0.00
2013-10-6,59.9,51.0,40.9,42.7,37.5,30.7,91,62,34,29.96,29.86,33,8,33,0.03
2013-10-7,74.6,54.3,34.8,51.3,42.8,32.2,91,69,37,29.96,29.76,17,4,17,0.00
2013-10-8,75.8,63.0,51.4,48.9,44.8,41.6,69,53,35,29.76,29.58,34,14,34,0.00
2013-10-9,74.9,62.3,47.3,56.2,50.0,43.6,88,66,45,29.74,29.66,30,11,30,0.00
2013-10-10,72.7,63.2,55.1,58.9,54.9,51.3,88,75,59,29.72,29.44,39,15,39,0.00
2013-10-11,66.3,60.3,46.3,58.7,49.6,40.3,85,68,54,29.69,29.30,44,15,44,0.00
2013-10-12,61.7,49.4,34.5,40.1,34.6,29.9,92,60,32,30.17,29.76,26,5,26,0.00
2013-10-13,65.9,50.4,31.9,44.3,36.4,29.0,90,63,34,30.28,30.10,28,8,28,0.04
2013-10-14,54.7,48.7,45.5,51.8,45.4,42.3,90,89,78,30.13,29.52,34,12,34,1.41
2013-10-15,46.8,41.9,38.9,43.1,37.5,34.8,92,84,81,30.00,29.64,37,14,37,0.01
2013-10-16,57.2,46.6,33.7,39.8,35.1,30.5,89,66,41,30.01,29.82,15,3,15,0.00
2013-10-17,46.1,39.1,28.5,40.5,34.0,25.8,91,82,71,30.02,29.78,27,6,27,0.00
2013-10-18,51.7,37.9,25.4,35.7,29.7,22.6,89,75,40,30.06,29.91,20,3,20,0.03
2013-10-19,60.9,44.6,32.3,39.1,34.6,28.6,87,71,41,29.91,29.67,18,4,18,0.00
2013-10-20,59.7,47.3,31.9,43.5,38.1,28.6,88,72,47,29.94,29.61,30,6,30,0.00
2013-10-21,54.7,41.0,28.1,38.3,33.5,25.3,91,77,47,29.97,29.83,19,3,19,0.00
2013-10-22,46.9,42.1,27.4,43.2,37.1,24.6,90,83,69,30.03,29.79,27,6,27,0.01
2013-10-23,49.7,39.2,27.4,42.6,34.9,24.9,91,85,71,30.11,29.92,11,4,17,0.00
2013-10-24,49.2,40.0,27.9,29.4,26.7,24.0,88,62,39,30.31,30.25,9,2,9,0.00
2013-10-25,59.6,45.8,27.7,41.7,36.2,24.6,89,70,49,30.29,29.92,30,9,30,0.00
2013-10-26,51.5,41.0,28.1,40.5,31.6,24.4,92,71,42,30.16,29.93,24,5,24,0.00
2013-10-27,71.7,46.5,28.7,43.3,34.3,24.9,86,66,30,30.01,29.70,19,5,19,0.00
2013-10-28,44.9,38.3,33.3,36.9,33.3,29.6,89,82,70,30.14,29.90,27,10,27,0.03
2013-10-29,39.1,37.5,36.0,36.7,35.1,33.4,91,91,89,30.11,29.91,17,5,17,0.52
2013-10-30,41.8,36.3,29.7,39.1,33.9,27.4,92,91,89,29.97,29.68,12,3,12,0.02
2013-10-31,54.2,41.8,29.4,43.7,34.5,27.1,92,77,51,29.68,29.44,30,6,30,0.01
2013-11-1,55.7,45.2,32.3,40.9,37.3,28.6,88,74,50,29.95,29.53,45,9,45,0.01
2013-11-2,59.9,51.5,42.1,35.6,29.4,25.4,58,43,30,30.08,29.86,21,6,21,0.01
2013-11-3,59.0,49.8,41.6,38.3,34.7,28.7,72,57,45,29.86,29.46,41,17,41,0.00
2013-11-4,52.0,40.2,28.7,38.0,31.5,25.2,89,73,43,30.06,29.57,25,4,25,0.00
2013-11-5,35.4,31.8,27.2,32.8,28.9,24.3,96,89,80,30.10,29.93,17,3,17,0.10
2013-11-6,31.7,27.5,24.6,29.3,25.2,22.3,92,91,89,30.23,30.15,15,2,15,0.24
2013-11-7,45.0,35.0,27.2,33.5,29.1,24.7,91,80,60,30.38,30.09,15,5,15,0.09
2013-11-8,58.4,43.3,34.1,44.0,35.2,29.1,89,74,54,30.09,29.58,29,9,29,0.00
2013-11-9,56.4,43.6,32.5,38.1,33.0,27.0,84,67,49,30.27,29.83,19,5,19,0.00
2013-11-10,52.2,39.6,28.3,38.9,32.4,24.9,89,77,49,30.28,30.02,27,7,27,0.00
2013-11-11,39.1,25.2,10.8,36.4,18.9,6.8,95,77,48,30.77,30.03,30,9,30,0.00
2013-11-12,39.1,22.8,6.4,23.5,14.6,3.4,88,72,43,30.83,30.41,23,7,23,0.00
2013-11-13,62.1,41.3,28.6,36.2,30.1,21.6,87,67,38,30.41,29.83,27,11,27,0.00
2013-11-14,57.9,42.7,28.5,44.9,34.2,25.3,89,74,45,29.88,29.78,17,3,17,0.00
2013-11-15,57.9,42.7,28.8,41.2,34.6,26.0,90,75,45,29.78,29.39,32,9,32,0.00
2013-11-16,60.9,44.5,32.0,42.6,31.4,20.4,91,66,22,29.39,29.17,29,6,29,0.00
2013-11-17,52.1,37.9,21.9,39.3,32.0,18.3,88,80,54,29.98,29.26,30,5,30,0.00
2013-11-18,58.3,37.0,20.6,31.3,24.0,17.6,89,64,24,30.14,29.97,17,5,17,0.00
2013-11-19,59.2,45.6,32.7,36.8,30.0,23.9,72,56,36,29.99,29.61,39,17,39,0.00
2013-11-20,55.1,43.4,31.0,37.6,32.5,25.8,82,66,51,29.97,29.57,31,8,31,0.00
2013-11-21,30.9,19.9,13.0,25.5,14.5,8.3,92,79,67,30.65,29.97,30,15,37,0.00
2013-11-22,33.6,15.0,-5.0,15.2,6.5,-8.8,95,71,34,30.72,30.59,18,4,18,0.00
2013-11-23,21.6,13.6,5.0,12.0,6.7,1.5,95,74,52,30.89,30.66,14,4,14,0.00
2013-11-24,42.2,26.9,13.4,28.9,19.1,6.9,85,73,55,30.66,30.02,37,16,37,0.00
2013-11-25,42.7,32.7,23.6,31.0,25.9,20.3,90,77,56,30.18,29.99,21,6,21,0.00
2013-11-26,28.0,24.4,12.3,22.5,15.9,6.5,92,71,47,30.40,30.18,25,8,25,0.00
2013-11-27,42.8,24.1,6.2,27.2,14.3,3.0,87,69,43,30.42,29.94,33,9,33,0.00
2013-11-28,32.1,24.9,15.7,24.5,19.4,12.3,88,79,71,30.39,30.07,17,6,24,0.00
2013-11-29,19.3,18.2,17.1,16.1,14.8,13.9,87,87,86,30.38,30.37,10,6,10,0.00
2013-11-30,34.3,32.7,30.5,27.7,26.9,25.6,83,79,76,30.10,30.09,4,0,4,0.00
2013-12-1,30.3,22.5,17.8,25.6,19.5,15.0,90,88,82,30.10,30.05,4,0,4,0.00
2013-12-2,61.4,43.8,26.7,36.5,30.5,23.3,88,63,38,29.53,29.41,8,1,8,0.00
2013-12-3,36.8,28.0,20.7,33.2,25.4,17.7,98,90,83,29.74,29.43,24,8,24,0.00
2013-12-4,20.7,13.2,5.8,17.7,9.0,0.3,89,83,76,30.12,29.68,33,12,33,0.00
2013-12-5,9.9,3.9,-1.3,0.3,-3.6,-8.4,78,71,58,30.50,30.13,25,8,25,0.00
2013-12-6,4.8,-3.2,-9.0,-4.4,-9.5,-14.0,84,74,63,30.78,30.49,17,4,17,0.00
2013-12-7,-8.0,-9.3,-10.4,-10.4,-13.5,-14.6,92,81,80,30.78,30.75,4,1,4,0.00
2013-12-8,14.6,8.7,-1.1,10.4,4.9,-5.9,92,84,78,30.23,30.03,15,4,15,0.00
2013-12-9,15.0,1.1,-4.0,4.6,-4.8,-8.9,81,76,62,30.32,30.21,14,6,14,0.00
2013-12-10,28.3,24.3,20.3,23.7,19.5,15.7,85,82,80,30.31,30.12,28,12,28,0.00
2013-12-11,23.2,11.2,-5.3,15.6,3.3,-9.6,85,71,51,30.61,30.31,23,7,23,0.00
2013-12-12,48.5,41.2,27.9,24.0,21.8,17.8,69,47,35,30.13,30.07,15,4,15,0.00
2013-12-13,27.9,20.9,17.1,23.0,17.1,14.2,88,85,80,30.09,29.86,22,9,22,0.00
2013-12-15,48.7,35.6,21.0,33.6,28.0,17.8,90,75,53,29.99,29.85,19,4,19,0.00
2013-12-16,46.3,33.7,27.0,33.1,27.8,23.4,87,80,59,30.10,29.85,17,4,25,0.00
2013-12-17,43.5,32.0,24.2,26.1,21.8,14.7,89,68,37,30.26,29.89,25,6,25,0.00
2013-12-18,36.0,31.3,26.7,25.0,22.9,19.8,77,71,64,29.89,29.70,17,7,17,0.00
2013-12-19,22.8,15.9,8.9,20.3,12.7,5.1,90,87,82,29.94,29.77,23,10,23,0.00
2013-12-20,17.2,13.0,8.2,10.3,7.7,3.9,86,79,73,30.04,29.84,18,4,18,0.00
2013-12-21,28.7,14.9,4.2,16.0,9.6,0.9,97,80,58,29.98,29.75,19,4,19,0.00
2013-12-22,17.9,11.4,5.0,8.8,6.2,1.7,88,79,64,30.32,29.98,20,7,20,0.00
2013-12-23,10.5,0.6,-6.4,-0.3,-5.1,-10.6,83,77,57,30.65,30.45,17,6,17,0.00
2013-12-24,34.4,24.0,11.4,29.0,19.4,8.5,89,83,66,30.23,30.01,33,11,33,0.00
2013-12-25,38.7,26.6,11.0,28.9,20.5,8.2,90,78,54,30.27,30.15,25,6,25,0.00
2013-12-26,49.6,28.7,16.8,27.5,19.3,12.4,92,72,35,30.19,30.03,21,4,21,0.00
2013-12-27,60.4,36.6,16.1,32.3,23.9,12.9,89,65,34,30.19,29.94,19,4,19,0.00
2013-12-28,59.6,35.1,14.8,32.5,24.6,8.0,86,69,29,30.11,29.66,43,9,43,0.00
2013-12-29,13.6,7.4,-0.2,-1.9,-6.7,-10.3,69,52,41,30.42,30.18,22,7,22,0.00
2013-12-30,40.1,18.0,11.0,30.4,7.0,-2.1,73,62,52,30.18,30.03,27,11,27,0.00
2013-12-31,33.0,20.3,10.3,22.7,13.8,5.3,88,76,64,30.17,29.96,22,9,22,0.00
2014-1-1,10.2,5.3,-2.8,5.4,1.2,-6.4,86,83,80,30.44,30.12,16,5,16,0.00
2014-1-2,10.5,8.2,0.9,6.4,4.3,-2.4,88,84,78,30.49,30.39,8,2,8,0.00